createdAt,value
2017-03-25T00:00:14.530Z,45.16
2017-03-25T00:00:55.300Z,45.35
2017-03-25T00:01:36.023Z,45.37
2017-03-25T00:02:16.729Z,45.37
2017-03-25T00:02:57.331Z,45.37
2017-03-25T00:03:38.260Z,45.18
2017-03-25T00:04:18.784Z,45.18
2017-03-25T00:04:59.386Z,45.85
2017-03-25T00:05:40.015Z,46.04
2017-03-25T00:06:20.669Z,45.83
2017-03-25T00:07:01.394Z,46.42
2017-03-25T00:07:42.038Z,46.4
2017-03-25T00:08:22.655Z,46.4
2017-03-25T00:09:03.263Z,46.68
2017-03-25T00:09:43.940Z,46.68
2017-03-25T00:10:24.567Z,46.49
2017-03-25T00:11:05.172Z,46.97
2017-03-25T00:11:45.741Z,46.59
2017-03-25T00:12:26.357Z,47.16
2017-03-25T00:13:06.994Z,47.16
2017-03-25T00:13:47.591Z,46.49
2017-03-25T00:14:28.326Z,46.68
2017-03-25T00:15:08.927Z,46.49
2017-03-25T00:15:49.523Z,46.11
2017-03-25T00:16:30.138Z,46.2
2017-03-25T00:17:10.746Z,46.49
2017-03-25T00:17:51.336Z,46.49
2017-03-25T00:18:31.927Z,46.4
2017-03-25T00:19:12.543Z,46.68
2017-03-25T00:19:53.130Z,46.49
2017-03-25T00:20:33.741Z,47.25
2017-03-25T00:21:14.337Z,46.97
2017-03-25T00:21:54.938Z,46.68
2017-03-25T00:22:35.550Z,46.97
2017-03-25T00:23:16.120Z,46.68
2017-03-25T00:23:56.704Z,47.44
2017-03-25T00:24:37.356Z,47.25
2017-03-25T00:25:17.977Z,47.16
2017-03-25T00:25:58.584Z,47.25
2017-03-25T00:26:39.210Z,47.25
2017-03-25T00:27:19.840Z,46.97
2017-03-25T00:28:00.444Z,47.16
2017-03-25T00:28:41.028Z,46.97
2017-03-25T00:29:21.609Z,47.34
2017-03-25T00:30:02.205Z,47.54
2017-03-25T00:30:42.783Z,47.54
2017-03-25T00:31:23.389Z,47.54
2017-03-25T00:32:03.987Z,47.73
2017-03-25T00:32:44.579Z,48.11
2017-03-25T00:33:25.371Z,47.92
2017-03-25T00:34:06.006Z,47.82
2017-03-25T00:34:46.701Z,47.54
2017-03-25T00:35:27.344Z,47.34
2017-03-25T00:36:08.049Z,47.34
2017-03-25T00:36:48.773Z,47.63
2017-03-25T00:37:29.479Z,47.82
2017-03-25T00:38:10.148Z,47.54
2017-03-25T00:38:50.887Z,47.63
2017-03-25T00:39:31.556Z,47.82
2017-03-25T00:40:12.326Z,48.3
2017-03-25T00:40:52.915Z,48.21
2017-03-25T00:41:33.530Z,48.68
2017-03-25T00:42:14.187Z,49.06
2017-03-25T00:42:54.809Z,48.87
2017-03-25T00:43:35.463Z,48.96
2017-03-25T00:44:16.087Z,49.25
2017-03-25T00:44:56.717Z,49.25
2017-03-25T00:45:37.308Z,48.96
2017-03-25T00:46:17.953Z,48.96
2017-03-25T00:46:58.539Z,49.06
2017-03-25T00:47:39.141Z,49.06
2017-03-25T00:48:19.937Z,49.06
2017-03-25T00:49:00.568Z,48.87
2017-03-25T00:49:41.204Z,48.87
2017-03-25T00:50:21.807Z,49.25
2017-03-25T00:51:02.429Z,49.06
2017-03-25T00:51:43.076Z,49.15
2017-03-25T00:52:23.719Z,48.96
2017-03-25T00:53:04.348Z,49.06
2017-03-25T00:53:45.009Z,48.96
2017-03-25T00:54:25.636Z,49.25
2017-03-25T00:55:06.269Z,49.06
2017-03-25T00:55:46.880Z,48.96
2017-03-25T00:56:27.525Z,48.87
2017-03-25T00:57:08.151Z,49.63
2017-03-25T00:57:48.704Z,49.73
2017-03-25T00:58:29.283Z,49.82
2017-03-25T00:59:09.874Z,49.63
2017-03-25T00:59:50.461Z,49.82
2017-03-25T01:00:31.050Z,50.01
2017-03-25T01:01:11.667Z,49.91
2017-03-25T01:01:52.307Z,49.63
2017-03-25T01:02:32.903Z,49.73
2017-03-25T01:03:13.489Z,49.82
2017-03-25T01:03:54.111Z,49.54
2017-03-25T01:04:34.747Z,49.44
2017-03-25T01:05:15.323Z,48.87
2017-03-25T01:05:55.952Z,49.06
2017-03-25T01:06:36.525Z,48.96
2017-03-25T01:07:17.096Z,48.96
2017-03-25T01:07:57.688Z,49.06
2017-03-25T01:08:38.303Z,49.6
2017-03-25T01:09:18.979Z,49.35
2017-03-25T01:09:59.564Z,49.82
2017-03-25T01:10:40.140Z,49.91
2017-03-25T01:11:20.748Z,50.01
2017-03-25T01:12:01.350Z,50.01
2017-03-25T01:12:41.973Z,50.01
2017-03-25T01:13:22.625Z,49.89
2017-03-25T01:14:03.849Z,49.91
2017-03-25T01:14:44.433Z,49.89
2017-03-25T01:15:25.001Z,49.89
2017-03-25T01:16:05.567Z,49.79
2017-03-25T01:16:46.158Z,49.98
2017-03-25T01:17:26.742Z,50.08
2017-03-25T01:18:07.320Z,50.1
2017-03-25T01:18:47.898Z,50.08
2017-03-25T01:19:28.470Z,50.08
2017-03-25T01:20:09.045Z,50.18
2017-03-25T01:20:49.663Z,49.79
2017-03-25T01:21:30.264Z,49.79
2017-03-25T01:22:10.847Z,49.7
2017-03-25T01:22:51.462Z,49.7
2017-03-25T01:23:32.040Z,49.7
2017-03-25T01:24:12.654Z,49.98
2017-03-25T01:24:53.283Z,49.98
2017-03-25T01:25:35.543Z,50.08
2017-03-25T01:26:16.111Z,49.89
2017-03-25T01:26:56.756Z,50.08
2017-03-25T01:27:37.455Z,50.08
2017-03-25T01:28:18.103Z,50.18
2017-03-25T01:28:58.790Z,50.37
2017-03-25T01:29:39.413Z,50.56
2017-03-25T01:30:20.115Z,50.65
2017-03-25T01:31:00.831Z,50.37
2017-03-25T01:31:41.442Z,50.27
2017-03-25T01:32:22.109Z,50.27
2017-03-25T01:33:02.717Z,50.18
2017-03-25T01:33:43.299Z,50.56
2017-03-25T01:34:23.903Z,50.56
2017-03-25T01:35:04.511Z,50.65
2017-03-25T01:35:45.096Z,50.56
2017-03-25T01:36:25.772Z,50.65
2017-03-25T01:37:07.072Z,50.74
2017-03-25T01:37:47.645Z,51.03
2017-03-25T01:38:28.277Z,50.93
2017-03-25T01:39:08.892Z,50.84
2017-03-25T01:39:49.492Z,51.03
2017-03-25T01:40:30.105Z,50.93
2017-03-25T01:41:10.790Z,51.6
2017-03-25T01:41:51.336Z,51.31
2017-03-25T01:42:31.902Z,51.31
2017-03-25T01:43:12.509Z,51.51
2017-03-25T01:43:53.100Z,51.31
2017-03-25T01:44:33.688Z,51.31
2017-03-25T01:45:14.273Z,51.51
2017-03-25T01:45:54.849Z,51.7
2017-03-25T01:46:35.522Z,51.79
2017-03-25T01:47:16.118Z,51.89
2017-03-25T01:47:56.682Z,52.08
2017-03-25T01:48:37.274Z,51.79
2017-03-25T01:49:17.862Z,51.7
2017-03-25T01:49:58.471Z,51.79
2017-03-25T01:50:39.089Z,51.79
2017-03-25T01:51:19.681Z,51.89
2017-03-25T01:52:00.394Z,51.6
2017-03-25T01:52:40.922Z,51.98
2017-03-25T01:53:21.512Z,51.79
2017-03-25T01:54:02.097Z,51.7
2017-03-25T01:54:42.702Z,51.79
2017-03-25T01:55:23.258Z,51.89
2017-03-25T01:56:03.840Z,51.79
2017-03-25T01:56:44.397Z,51.51
2017-03-25T01:57:24.967Z,51.7
2017-03-25T01:58:05.548Z,51.89
2017-03-25T01:58:46.138Z,51.79
2017-03-25T01:59:26.694Z,51.98
2017-03-25T02:00:07.291Z,52.26
2017-03-25T02:00:47.896Z,52.45
2017-03-25T02:01:28.498Z,51.89
2017-03-25T02:02:09.137Z,52.55
2017-03-25T02:02:49.697Z,52.36
2017-03-25T02:03:30.368Z,52.26
2017-03-25T02:04:11.022Z,52.64
2017-03-25T02:04:51.579Z,52.64
2017-03-25T02:05:32.233Z,52.45
2017-03-25T02:06:12.834Z,52.64
2017-03-25T02:06:53.426Z,52.36
2017-03-25T02:07:34.074Z,52.55
2017-03-25T02:08:14.708Z,52.26
2017-03-25T02:08:55.293Z,52.36
2017-03-25T02:09:35.887Z,52.74
2017-03-25T02:10:16.433Z,52.93
2017-03-25T02:10:57.062Z,52.84
2017-03-25T02:11:37.708Z,52.64
2017-03-25T02:12:18.309Z,52.74
2017-03-25T02:12:58.892Z,52.26
2017-03-25T02:13:39.496Z,52.36
2017-03-25T02:14:20.069Z,52.74
2017-03-25T02:15:00.648Z,52.64
2017-03-25T02:15:41.246Z,52.64
2017-03-25T02:16:21.838Z,52.64
2017-03-25T02:17:02.403Z,52.55
2017-03-25T02:17:42.999Z,52.45
2017-03-25T02:18:23.618Z,52.64
2017-03-25T02:19:04.202Z,52.74
2017-03-25T02:19:44.778Z,52.74
2017-03-25T02:20:25.372Z,52.74
2017-03-25T02:21:05.989Z,53.31
2017-03-25T02:21:46.578Z,52.93
2017-03-25T02:22:27.183Z,53
2017-03-25T02:23:07.761Z,53.12
2017-03-25T02:23:48.355Z,53.12
2017-03-25T02:24:28.930Z,53.5
2017-03-25T02:25:09.529Z,53.57
2017-03-25T02:25:50.171Z,53.5
2017-03-25T02:26:30.763Z,53.47
2017-03-25T02:27:11.363Z,53.28
2017-03-25T02:27:51.933Z,53.41
2017-03-25T02:28:32.511Z,53.69
2017-03-25T02:29:13.186Z,54.05
2017-03-25T02:29:53.773Z,53.69
2017-03-25T02:30:34.409Z,53
2017-03-25T02:31:15.003Z,53.28
2017-03-25T02:31:55.607Z,53.22
2017-03-25T02:32:36.213Z,53.03
2017-03-25T02:33:16.818Z,53.69
2017-03-25T02:33:57.408Z,53.69
2017-03-25T02:34:38.020Z,53.69
2017-03-25T02:35:18.643Z,53.59
2017-03-25T02:35:59.186Z,53.69
2017-03-25T02:36:39.768Z,53.41
2017-03-25T02:37:20.371Z,53.28
2017-03-25T02:38:00.979Z,53.22
2017-03-25T02:38:41.566Z,53.22
2017-03-25T02:39:22.226Z,53.12
2017-03-25T02:40:02.871Z,53.22
2017-03-25T02:40:43.454Z,52.93
2017-03-25T02:41:24.040Z,53.09
2017-03-25T02:42:04.645Z,53.28
2017-03-25T02:42:45.208Z,53.22
2017-03-25T02:43:25.796Z,53.5
2017-03-25T02:44:06.373Z,53.88
2017-03-25T02:44:46.950Z,53.78
2017-03-25T02:45:27.537Z,53.76
2017-03-25T02:46:08.185Z,54.26
2017-03-25T02:46:48.746Z,54.36
2017-03-25T02:47:29.391Z,53.88
2017-03-25T02:48:09.972Z,53.69
2017-03-25T02:48:50.583Z,53.66
2017-03-25T02:49:31.209Z,53.69
2017-03-25T02:50:11.776Z,53.78
2017-03-25T02:50:52.369Z,54.26
2017-03-25T02:51:32.951Z,53.78
2017-03-25T02:52:13.544Z,53.97
2017-03-25T02:52:54.235Z,53.69
2017-03-25T02:53:34.831Z,53.22
2017-03-25T02:54:15.443Z,53.97
2017-03-25T02:54:55.984Z,53.5
2017-03-25T02:55:36.575Z,52.81
2017-03-25T02:56:17.169Z,53
2017-03-25T02:56:57.740Z,53.5
2017-03-25T02:57:38.360Z,53.22
2017-03-25T02:58:18.983Z,53.12
2017-03-25T02:58:59.567Z,52.74
2017-03-25T02:59:40.145Z,52.43
2017-03-25T03:00:20.772Z,52.17
2017-03-25T03:01:01.360Z,52.08
2017-03-25T03:01:41.947Z,51.7
2017-03-25T03:02:22.536Z,51.89
2017-03-25T03:03:03.118Z,51.31
2017-03-25T03:03:43.701Z,51.12
2017-03-25T03:04:24.350Z,50.74
2017-03-25T03:05:04.940Z,50.84
2017-03-25T03:05:45.593Z,50.81
2017-03-25T03:06:26.214Z,50.84
2017-03-25T03:07:06.787Z,50.74
2017-03-25T03:07:47.367Z,51.12
2017-03-25T03:08:27.945Z,50.84
2017-03-25T03:09:08.527Z,51.01
2017-03-25T03:09:49.135Z,50.84
2017-03-25T03:10:29.723Z,50.56
2017-03-25T03:11:10.332Z,50.84
2017-03-25T03:11:50.915Z,50.18
2017-03-25T03:12:31.506Z,50.08
2017-03-25T03:13:12.085Z,50.08
2017-03-25T03:13:52.673Z,49.96
2017-03-25T03:14:33.245Z,49.98
2017-03-25T03:15:13.884Z,49.89
2017-03-25T03:15:54.456Z,49.96
2017-03-25T03:16:35.083Z,49.89
2017-03-25T03:17:15.682Z,49.87
2017-03-25T03:17:56.314Z,49.79
2017-03-25T03:18:36.966Z,49.79
2017-03-25T03:19:17.493Z,49.89
2017-03-25T03:19:58.093Z,49.89
2017-03-25T03:20:38.756Z,50.05
2017-03-25T03:21:19.401Z,49.79
2017-03-25T03:22:00.002Z,49.51
2017-03-25T03:22:40.565Z,49.89
2017-03-25T03:23:21.147Z,49.7
2017-03-25T03:24:01.729Z,49.6
2017-03-25T03:24:42.319Z,49.6
2017-03-25T03:25:22.912Z,49.79
2017-03-25T03:26:03.481Z,49.6
2017-03-25T03:26:44.090Z,49.6
2017-03-25T03:27:24.689Z,49.51
2017-03-25T03:28:05.293Z,49.32
2017-03-25T03:28:45.917Z,49.51
2017-03-25T03:29:26.512Z,49.04
2017-03-25T03:30:07.086Z,48.85
2017-03-25T03:30:47.678Z,49.13
2017-03-25T03:31:28.273Z,48.94
2017-03-25T03:32:08.855Z,48.63
2017-03-25T03:32:49.474Z,48.56
2017-03-25T03:33:30.153Z,49.04
2017-03-25T03:34:10.779Z,48.85
2017-03-25T03:34:51.370Z,48.94
2017-03-25T03:35:31.952Z,48.94
2017-03-25T03:36:12.530Z,48.94
2017-03-25T03:36:53.130Z,48.37
2017-03-25T03:37:33.735Z,48.37
2017-03-25T03:38:14.328Z,48.66
2017-03-25T03:38:54.937Z,48.56
2017-03-25T03:39:35.492Z,48.72
2017-03-25T03:40:16.100Z,48.82
2017-03-25T03:40:56.676Z,48.75
2017-03-25T03:41:37.286Z,48.75
2017-03-25T03:42:17.854Z,48.85
2017-03-25T03:42:58.458Z,48.37
2017-03-25T03:43:39.039Z,48.37
2017-03-25T03:44:19.624Z,48.46
2017-03-25T03:45:00.288Z,48.25
2017-03-25T03:45:40.855Z,48.46
2017-03-25T03:46:21.441Z,48.37
2017-03-25T03:47:02.035Z,48.37
2017-03-25T03:47:42.658Z,48.66
2017-03-25T03:48:23.249Z,48.75
2017-03-25T03:49:03.897Z,48.75
2017-03-25T03:49:44.460Z,48.75
2017-03-25T03:50:25.077Z,48.75
2017-03-25T03:51:05.677Z,48.75
2017-03-25T03:51:46.247Z,48.91
2017-03-25T03:52:26.842Z,48.82
2017-03-25T03:53:07.422Z,48.85
2017-03-25T03:53:48.021Z,49.13
2017-03-25T03:54:28.600Z,49.04
2017-03-25T03:55:09.168Z,48.94
2017-03-25T03:55:49.787Z,49.04
2017-03-25T03:56:30.354Z,49.04
2017-03-25T03:57:10.942Z,49.13
2017-03-25T03:57:51.530Z,49.41
2017-03-25T03:58:32.111Z,49.51
2017-03-25T03:59:12.675Z,49.49
2017-03-25T03:59:53.249Z,49.89
2017-03-25T04:00:33.865Z,49.89
2017-03-25T04:01:14.461Z,49.89
2017-03-25T04:01:55.062Z,49.96
2017-03-25T04:02:35.637Z,49.98
2017-03-25T04:03:16.224Z,49.89
2017-03-25T04:03:56.944Z,49.89
2017-03-25T04:04:37.535Z,49.87
2017-03-25T04:05:18.179Z,49.87
2017-03-25T04:05:58.801Z,49.68
2017-03-25T04:06:39.389Z,49.77
2017-03-25T04:07:20.021Z,50.05
2017-03-25T04:08:00.600Z,49.96
2017-03-25T04:08:41.190Z,49.7
2017-03-25T04:09:21.794Z,49.77
2017-03-25T04:10:02.370Z,49.87
2017-03-25T04:10:42.991Z,49.87
2017-03-25T04:11:23.593Z,49.68
2017-03-25T04:12:04.201Z,49.87
2017-03-25T04:12:44.821Z,49.96
2017-03-25T04:13:25.408Z,49.39
2017-03-25T04:14:06.010Z,49.68
2017-03-25T04:14:46.606Z,49.1
2017-03-25T04:15:27.204Z,49.49
2017-03-25T04:16:07.813Z,49.1
2017-03-25T04:16:48.426Z,49.68
2017-03-25T04:17:29.008Z,49.49
2017-03-25T04:18:09.582Z,49.68
2017-03-25T04:18:50.168Z,49.58
2017-03-25T04:19:30.766Z,49.49
2017-03-25T04:20:11.364Z,49.39
2017-03-25T04:20:51.984Z,49.1
2017-03-25T04:21:32.552Z,48.82
2017-03-25T04:22:13.189Z,48.91
2017-03-25T04:22:53.805Z,49.01
2017-03-25T04:23:34.426Z,48.72
2017-03-25T04:24:15.006Z,48.82
2017-03-25T04:24:55.586Z,48.44
2017-03-25T04:25:36.174Z,48.54
2017-03-25T04:26:16.740Z,48.72
2017-03-25T04:26:57.325Z,48.63
2017-03-25T04:27:37.937Z,48.72
2017-03-25T04:28:18.528Z,48.82
2017-03-25T04:28:59.135Z,48.91
2017-03-25T04:29:39.718Z,49.01
2017-03-25T04:30:20.353Z,48.82
2017-03-25T04:31:00.928Z,48.25
2017-03-25T04:31:41.524Z,48.25
2017-03-25T04:32:22.143Z,48.35
2017-03-25T04:33:02.747Z,48.16
2017-03-25T04:33:43.363Z,48.25
2017-03-25T04:34:24.076Z,48.35
2017-03-25T04:35:04.707Z,48.35
2017-03-25T04:35:45.359Z,48.44
2017-03-25T04:36:25.930Z,47.77
2017-03-25T04:37:06.586Z,47.87
2017-03-25T04:37:47.194Z,47.68
2017-03-25T04:38:27.783Z,47.87
2017-03-25T04:39:08.364Z,47.49
2017-03-25T04:39:48.961Z,47.49
2017-03-25T04:40:29.575Z,47.77
2017-03-25T04:41:10.158Z,48.54
2017-03-25T04:41:50.743Z,48.16
2017-03-25T04:42:31.332Z,48.35
2017-03-25T04:43:11.950Z,48.63
2017-03-25T04:43:52.564Z,48.72
2017-03-25T04:44:33.119Z,48.82
2017-03-25T04:45:13.702Z,48.72
2017-03-25T04:45:54.311Z,48.25
2017-03-25T04:46:34.894Z,48.44
2017-03-25T04:47:15.477Z,47.97
2017-03-25T04:47:56.077Z,48.25
2017-03-25T04:48:36.678Z,48.44
2017-03-25T04:49:17.277Z,48.54
2017-03-25T04:49:57.865Z,48.63
2017-03-25T04:50:38.459Z,48.35
2017-03-25T04:51:19.038Z,48.06
2017-03-25T04:51:59.642Z,48.35
2017-03-25T04:52:40.238Z,48.63
2017-03-25T04:53:20.825Z,48.72
2017-03-25T04:54:01.412Z,48.91
2017-03-25T04:54:41.987Z,48.63
2017-03-25T04:55:22.557Z,48.91
2017-03-25T04:56:03.152Z,48.63
2017-03-25T04:56:43.741Z,48.63
2017-03-25T04:57:24.341Z,48.54
2017-03-25T04:58:04.937Z,48.35
2017-03-25T04:58:45.533Z,48.35
2017-03-25T04:59:26.111Z,48.25
2017-03-25T05:00:06.734Z,47.97
2017-03-25T05:00:47.316Z,47.68
2017-03-25T05:01:27.936Z,47.49
2017-03-25T05:02:08.517Z,47.49
2017-03-25T05:02:49.117Z,47.68
2017-03-25T05:03:29.697Z,47.49
2017-03-25T05:04:10.351Z,47.2
2017-03-25T05:04:50.954Z,46.92
2017-03-25T05:05:31.565Z,46.83
2017-03-25T05:06:12.182Z,46.83
2017-03-25T05:06:52.748Z,47.2
2017-03-25T05:07:33.449Z,47.02
2017-03-25T05:08:14.005Z,47.2
2017-03-25T05:08:54.627Z,47.02
2017-03-25T05:09:35.202Z,47.3
2017-03-25T05:10:15.769Z,47.02
2017-03-25T05:10:56.397Z,47.02
2017-03-25T05:11:36.996Z,47.2
2017-03-25T05:12:17.640Z,46.73
2017-03-25T05:12:58.235Z,46.73
2017-03-25T05:13:38.857Z,47.2
2017-03-25T05:14:19.464Z,47.02
2017-03-25T05:15:00.045Z,47.49
2017-03-25T05:15:40.633Z,47.68
2017-03-25T05:16:21.212Z,47.68
2017-03-25T05:17:01.819Z,47.58
2017-03-25T05:17:42.408Z,47.58
2017-03-25T05:18:22.968Z,47.58
2017-03-25T05:19:03.540Z,47.58
2017-03-25T05:19:44.151Z,47.58
2017-03-25T05:20:24.750Z,47.58
2017-03-25T05:21:05.333Z,47.58
2017-03-25T05:21:45.976Z,47.68
2017-03-25T05:22:26.591Z,47.68
2017-03-25T05:23:07.176Z,47.87
2017-03-25T05:23:47.760Z,47.49
2017-03-25T05:24:28.347Z,47.49
2017-03-25T05:25:08.918Z,47.49
2017-03-25T05:25:49.553Z,47.58
2017-03-25T05:26:30.151Z,47.68
2017-03-25T05:27:10.741Z,47.39
2017-03-25T05:27:51.338Z,47.49
2017-03-25T05:28:31.929Z,47.49
2017-03-25T05:29:12.515Z,47.58
2017-03-25T05:29:53.101Z,47.58
2017-03-25T05:30:33.673Z,47.77
2017-03-25T05:31:14.261Z,47.68
2017-03-25T05:31:54.834Z,47.68
2017-03-25T05:32:35.420Z,47.87
2017-03-25T05:33:16.037Z,47.77
2017-03-25T05:33:56.649Z,47.87
2017-03-25T05:34:37.212Z,47.77
2017-03-25T05:35:17.800Z,47.58
2017-03-25T05:35:58.392Z,47.77
2017-03-25T05:36:38.994Z,47.87
2017-03-25T05:37:19.546Z,47.58
2017-03-25T05:38:00.124Z,47.68
2017-03-25T05:38:40.700Z,47.77
2017-03-25T05:39:21.276Z,47.77
2017-03-25T05:40:01.902Z,47.87
2017-03-25T05:40:42.508Z,47.49
2017-03-25T05:41:23.093Z,47.58
2017-03-25T05:42:03.670Z,47.49
2017-03-25T05:42:44.320Z,47.3
2017-03-25T05:43:24.888Z,47.68
2017-03-25T05:44:05.464Z,47.2
2017-03-25T05:44:46.056Z,47.58
2017-03-25T05:45:26.653Z,47.58
2017-03-25T05:46:07.308Z,47.39
2017-03-25T05:46:47.898Z,47.68
2017-03-25T05:47:28.512Z,47.58
2017-03-25T05:48:09.106Z,47.39
2017-03-25T05:48:49.676Z,47.58
2017-03-25T05:49:30.282Z,47.68
2017-03-25T05:50:10.852Z,47.3
2017-03-25T05:50:51.429Z,47.58
2017-03-25T05:51:32.025Z,47.58
2017-03-25T05:52:12.599Z,47.58
2017-03-25T05:52:53.188Z,47.3
2017-03-25T05:53:33.761Z,47.39
2017-03-25T05:54:14.340Z,47.49
2017-03-25T05:54:54.935Z,47.58
2017-03-25T05:55:35.506Z,47.68
2017-03-25T05:56:16.082Z,47.87
2017-03-25T05:56:56.648Z,47.58
2017-03-25T05:57:37.227Z,47.49
2017-03-25T05:58:17.823Z,47.97
2017-03-25T05:58:58.415Z,48.06
2017-03-25T05:59:39.068Z,47.68
2017-03-25T06:00:19.680Z,47.87
2017-03-25T06:01:00.306Z,48.35
2017-03-25T06:01:40.912Z,48.44
2017-03-25T06:02:21.511Z,48.91
2017-03-25T06:03:02.114Z,48.82
2017-03-25T06:03:42.726Z,48.91
2017-03-25T06:04:23.313Z,49.01
2017-03-25T06:05:03.907Z,49.29
2017-03-25T06:05:44.478Z,49.39
2017-03-25T06:06:25.082Z,49.39
2017-03-25T06:07:05.645Z,49.39
2017-03-25T06:07:46.221Z,48.82
2017-03-25T06:08:26.813Z,48.91
2017-03-25T06:09:07.390Z,48.82
2017-03-25T06:09:48.006Z,49.01
2017-03-25T06:10:28.592Z,49.01
2017-03-25T06:11:09.176Z,48.91
2017-03-25T06:11:49.810Z,49.1
2017-03-25T06:12:30.394Z,48.82
2017-03-25T06:13:10.972Z,49.39
2017-03-25T06:13:51.595Z,48.82
2017-03-25T06:14:32.169Z,49.49
2017-03-25T06:15:12.756Z,49.87
2017-03-25T06:15:53.416Z,49.58
2017-03-25T06:16:34.038Z,49.68
2017-03-25T06:17:14.768Z,49.77
2017-03-25T06:17:55.317Z,49.98
2017-03-25T06:18:35.891Z,49.77
2017-03-25T06:19:16.469Z,49.22
2017-03-25T06:19:57.058Z,49.04
2017-03-25T06:20:37.700Z,48.85
2017-03-25T06:21:18.299Z,48.85
2017-03-25T06:21:58.947Z,48.44
2017-03-25T06:22:39.554Z,48.75
2017-03-25T06:23:20.256Z,49.13
2017-03-25T06:24:00.893Z,49.13
2017-03-25T06:24:41.479Z,48.94
2017-03-25T06:25:22.071Z,48.94
2017-03-25T06:26:02.667Z,49.04
2017-03-25T06:26:43.259Z,48.94
2017-03-25T06:27:23.823Z,48.56
2017-03-25T06:28:04.441Z,48.56
2017-03-25T06:28:45.001Z,48.85
2017-03-25T06:29:25.780Z,48.75
2017-03-25T06:30:06.438Z,48.94
2017-03-25T06:30:47.306Z,48.46
2017-03-25T06:31:27.929Z,48.27
2017-03-25T06:32:08.522Z,48.56
2017-03-25T06:32:49.114Z,48.37
2017-03-25T06:33:29.717Z,47.89
2017-03-25T06:34:10.308Z,47.89
2017-03-25T06:34:50.884Z,47.33
2017-03-25T06:35:31.495Z,47.61
2017-03-25T06:36:12.108Z,46.94
2017-03-25T06:36:52.695Z,47.23
2017-03-25T06:37:33.272Z,47.04
2017-03-25T06:38:13.849Z,47.61
2017-03-25T06:38:54.419Z,47.52
2017-03-25T06:39:35.051Z,47.89
2017-03-25T06:40:15.634Z,47.42
2017-03-25T06:40:56.288Z,47.8
2017-03-25T06:41:36.967Z,47.52
2017-03-25T06:42:17.570Z,47.89
2017-03-25T06:42:58.140Z,47.99
2017-03-25T06:43:38.756Z,47.82
2017-03-25T06:44:19.358Z,47.92
2017-03-25T06:45:00.121Z,47.54
2017-03-25T06:45:40.724Z,47.63
2017-03-25T06:46:21.332Z,47.44
2017-03-25T06:47:01.944Z,47.61
2017-03-25T06:47:42.555Z,47.82
2017-03-25T06:48:23.189Z,47.63
2017-03-25T06:49:03.775Z,47.92
2017-03-25T06:49:44.375Z,47.73
2017-03-25T06:50:24.959Z,47.92
2017-03-25T06:51:05.521Z,47.54
2017-03-25T06:51:46.099Z,47.73
2017-03-25T06:52:26.689Z,47.73
2017-03-25T06:53:07.298Z,47.73
2017-03-25T06:53:47.867Z,47.63
2017-03-25T06:54:28.447Z,47.54
2017-03-25T06:55:09.040Z,47.73
2017-03-25T06:55:49.639Z,47.92
2017-03-25T06:56:30.227Z,46.97
2017-03-25T06:57:10.798Z,46.78
2017-03-25T06:57:51.397Z,47.34
2017-03-25T06:58:31.976Z,46.97
2017-03-25T06:59:12.560Z,47.16
2017-03-25T06:59:53.130Z,47.34
2017-03-25T07:00:33.703Z,47.34
2017-03-25T07:01:14.299Z,47.25
2017-03-25T07:01:54.894Z,46.8
2017-03-25T07:02:35.494Z,46.59
2017-03-25T07:03:16.115Z,47.28
2017-03-25T07:03:56.708Z,46.99
2017-03-25T07:04:37.341Z,47.28
2017-03-25T07:05:17.922Z,47.37
2017-03-25T07:05:58.497Z,47.18
2017-03-25T07:06:39.078Z,46.7
2017-03-25T07:07:19.744Z,46.89
2017-03-25T07:08:00.370Z,46.89
2017-03-25T07:08:40.908Z,46.61
2017-03-25T07:09:21.545Z,46.42
2017-03-25T07:10:02.121Z,46.51
2017-03-25T07:10:42.722Z,46.89
2017-03-25T07:11:23.309Z,46.7
2017-03-25T07:12:03.935Z,49.94
2017-03-25T07:12:45.168Z,55.36
2017-03-25T07:13:25.773Z,59.2
2017-03-25T07:14:06.371Z,61.29
2017-03-25T07:14:46.981Z,60.05
2017-03-25T07:15:30.876Z,58.37
2017-03-25T07:16:17.117Z,57.32
2017-03-25T07:16:58.973Z,56.94
2017-03-25T07:17:39.562Z,56.3
2017-03-25T07:18:20.192Z,54.3
2017-03-25T07:19:00.829Z,54.11
2017-03-25T07:19:41.409Z,54.04
2017-03-25T07:20:22.019Z,54.14
2017-03-25T07:21:02.602Z,52.61
2017-03-25T07:21:43.201Z,50.99
2017-03-25T07:22:23.799Z,50.16
2017-03-25T07:23:04.417Z,49.11
2017-03-25T07:23:45.326Z,47.68
2017-03-25T07:24:27.221Z,46.56
2017-03-25T07:25:07.797Z,45.51
2017-03-25T07:25:48.423Z,43.03
2017-03-25T07:26:29.023Z,43.89
2017-03-25T07:27:09.609Z,44.74
2017-03-25T07:27:50.205Z,44.65
2017-03-25T07:28:30.797Z,43.91
2017-03-25T07:29:11.361Z,44.38
2017-03-25T07:29:51.971Z,44.96
2017-03-25T07:30:32.568Z,43.82
2017-03-25T07:31:13.148Z,40
2017-03-25T07:31:53.756Z,38.37
2017-03-25T07:32:34.346Z,37.42
2017-03-25T07:33:14.919Z,37.04
2017-03-25T07:33:55.552Z,37.13
2017-03-25T07:34:36.146Z,37.12
2017-03-25T07:35:16.754Z,37.3
2017-03-25T07:35:57.375Z,37.02
2017-03-25T07:36:37.961Z,37.59
2017-03-25T07:37:18.583Z,37.49
2017-03-25T07:37:59.193Z,37.97
2017-03-25T07:38:39.798Z,37.97
2017-03-25T07:39:24.493Z,37.76
2017-03-25T07:40:05.034Z,37.66
2017-03-25T07:40:45.646Z,37.48
2017-03-25T07:41:26.216Z,37.95
2017-03-25T07:42:06.868Z,38.05
2017-03-25T07:42:47.445Z,38.34
2017-03-25T07:43:28.035Z,38.34
2017-03-25T07:44:08.639Z,38.81
2017-03-25T07:44:49.338Z,38.71
2017-03-25T07:45:29.960Z,39.1
2017-03-25T07:46:10.606Z,39.17
2017-03-25T07:46:51.217Z,39.08
2017-03-25T07:47:31.817Z,39.08
2017-03-25T07:48:12.435Z,40.03
2017-03-25T07:48:53.071Z,39.75
2017-03-25T07:49:33.672Z,40.12
2017-03-25T07:50:14.254Z,39.75
2017-03-25T07:50:54.833Z,39.56
2017-03-25T07:51:35.445Z,39.56
2017-03-25T07:52:16.045Z,39.94
2017-03-25T07:52:56.631Z,40.12
2017-03-25T07:53:37.235Z,40.03
2017-03-25T07:54:17.886Z,40.41
2017-03-25T07:54:58.480Z,40.3
2017-03-25T07:55:39.099Z,40.3
2017-03-25T07:56:19.703Z,40.3
2017-03-25T07:57:00.301Z,40.3
2017-03-25T07:57:40.929Z,40.32
2017-03-25T07:58:21.515Z,40.8
2017-03-25T07:59:02.096Z,41.08
2017-03-25T07:59:42.686Z,40.51
2017-03-25T08:00:23.278Z,40.51
2017-03-25T08:01:03.939Z,40.22
2017-03-25T08:01:44.650Z,40.32
2017-03-25T08:02:25.300Z,40.32
2017-03-25T08:03:05.916Z,40.41
2017-03-25T08:03:46.532Z,40.41
2017-03-25T08:04:27.148Z,40.22
2017-03-25T08:05:07.836Z,40.41
2017-03-25T08:05:48.442Z,40.41
2017-03-25T08:06:29.211Z,40.03
2017-03-25T08:07:09.848Z,39.84
2017-03-25T08:07:50.477Z,39.65
2017-03-25T08:08:31.131Z,39.75
2017-03-25T08:09:11.753Z,40.12
2017-03-25T08:09:52.379Z,40.03
2017-03-25T08:10:33.011Z,40.12
2017-03-25T08:11:13.630Z,40.03
2017-03-25T08:11:54.276Z,40.41
2017-03-25T08:12:34.917Z,40.51
2017-03-25T08:13:15.540Z,40.8
2017-03-25T08:13:56.186Z,40.8
2017-03-25T08:14:36.796Z,40.8
2017-03-25T08:15:17.388Z,40.32
2017-03-25T08:15:57.988Z,40.32
2017-03-25T08:16:38.594Z,40.51
2017-03-25T08:17:19.196Z,40.41
2017-03-25T08:17:59.814Z,40.8
2017-03-25T08:18:40.415Z,40.99
2017-03-25T08:19:21.229Z,40.51
2017-03-25T08:20:02.510Z,40.51
2017-03-25T08:20:43.150Z,40.41
2017-03-25T08:21:24.328Z,40.89
2017-03-25T08:22:06.951Z,40.41
2017-03-25T08:22:48.551Z,40.51
2017-03-25T08:23:29.630Z,40.51
2017-03-25T08:24:12.647Z,40.32
2017-03-25T08:24:53.760Z,40.51
2017-03-25T08:25:35.039Z,40.51
2017-03-25T08:26:18.769Z,40.51
2017-03-25T08:26:59.391Z,40.32
2017-03-25T08:27:39.968Z,40.51
2017-03-25T08:28:20.623Z,40.89
2017-03-25T08:29:01.348Z,40.7
2017-03-25T08:29:42.038Z,40.89
2017-03-25T08:30:22.765Z,40.8
2017-03-25T08:31:03.353Z,40.7
2017-03-25T08:31:43.966Z,39.94
2017-03-25T08:32:24.558Z,39.65
2017-03-25T08:33:05.139Z,39.17
2017-03-25T08:33:45.781Z,39.36
2017-03-25T08:34:26.346Z,38.79
2017-03-25T08:35:06.947Z,39.17
2017-03-25T08:35:47.653Z,39.17
2017-03-25T08:36:28.313Z,39.36
2017-03-25T08:37:08.939Z,38.98
2017-03-25T08:37:50.656Z,38.51
2017-03-25T08:38:31.457Z,38.22
2017-03-25T08:39:12.153Z,37.93
2017-03-25T08:39:52.945Z,38.03
2017-03-25T08:40:33.761Z,37.17
2017-03-25T08:41:14.476Z,37.17
2017-03-25T08:41:55.306Z,37.55
2017-03-25T08:42:36.024Z,38.03
2017-03-25T08:43:16.785Z,38.32
2017-03-25T08:43:57.395Z,37.84
2017-03-25T08:44:37.988Z,36.41
2017-03-25T08:45:18.651Z,35.74